ZKJEE NZKM-NZNS

Flight info

Callsign ZKJEE
Flight time 0h 25m
Altitude 10000
Route CONOR
Aircraft DHC6/L-SDFGR/C

Departure

Time 2026-04-30 04:26
Airport Karamea Airport (NZKM)

Arrival

Time 2026-04-30 04:52
Airport Nelson Airport (NZNS)
Time Latitude Longitude Altitude Speed Heading
2026-04-30 04:18 -41.23372 172.10838 37 ft 0 kts 209°
2026-04-30 04:25 -41.23382 172.10830 37 ft 14 kts 209°
2026-04-30 04:26 -41.23759 172.10552 38 ft 100 kts 209°
2026-04-30 04:26 -41.24443 172.10047 278 ft 115 kts 209°
2026-04-30 04:26 -41.25193 172.09496 616 ft 128 kts 208°
2026-04-30 04:26 -41.25992 172.08908 976 ft 137 kts 207°
2026-04-30 04:27 -41.26852 172.08273 1346 ft 143 kts 207°
2026-04-30 04:27 -41.27728 172.07619 1705 ft 146 kts 206°
2026-04-30 04:27 -41.28621 172.06945 2057 ft 149 kts 207°
2026-04-30 04:27 -41.29523 172.06258 2411 ft 151 kts 208°
2026-04-30 04:28 -41.30435 172.05565 2768 ft 151 kts 208°
2026-04-30 04:28 -41.31356 172.04865 3124 ft 150 kts 209°
2026-04-30 04:28 -41.32206 172.04204 3455 ft 150 kts 209°
2026-04-30 04:28 -41.33203 172.03985 3789 ft 149 kts 167°
2026-04-30 04:29 -41.33973 172.04838 4143 ft 150 kts 121°
2026-04-30 04:29 -41.34326 172.06142 4512 ft 150 kts 110°
2026-04-30 04:29 -41.34614 172.07488 4863 ft 151 kts 109°
2026-04-30 04:29 -41.34891 172.08838 5213 ft 152 kts 110°
2026-04-30 04:30 -41.35171 172.10198 5564 ft 153 kts 110°
2026-04-30 04:30 -41.35448 172.11561 5913 ft 154 kts 110°
2026-04-30 04:30 -41.35726 172.12943 6265 ft 154 kts 110°
2026-04-30 04:30 -41.35996 172.14290 6606 ft 155 kts 110°
2026-04-30 04:31 -41.36281 172.15697 6962 ft 155 kts 110°
2026-04-30 04:31 -41.36575 172.17100 7316 ft 156 kts 111°
2026-04-30 04:31 -41.36870 172.18501 7669 ft 156 kts 111°
2026-04-30 04:31 -41.37162 172.19898 8020 ft 157 kts 111°
2026-04-30 04:32 -41.37452 172.21289 8368 ft 157 kts 111°
2026-04-30 04:32 -41.37743 172.22699 8719 ft 158 kts 111°
2026-04-30 04:32 -41.38031 172.24098 9067 ft 158 kts 111°
2026-04-30 04:32 -41.38320 172.25511 9417 ft 158 kts 111°
2026-04-30 04:33 -41.38605 172.26916 9764 ft 158 kts 111°
2026-04-30 04:33 -41.38891 172.28335 10115 ft 158 kts 111°
2026-04-30 04:33 -41.39174 172.29747 10449 ft 159 kts 111°
2026-04-30 04:33 -41.39475 172.31236 10599 ft 170 kts 111°
2026-04-30 04:34 -41.39795 172.32785 10647 ft 181 kts 111°
2026-04-30 04:34 -41.40138 172.34436 10652 ft 189 kts 110°
2026-04-30 04:34 -41.40487 172.36163 10651 ft 194 kts 110°
2026-04-30 04:34 -41.40839 172.37917 10649 ft 197 kts 110°
2026-04-30 04:35 -41.41196 172.39686 10648 ft 199 kts 110°
2026-04-30 04:35 -41.41555 172.41464 10647 ft 199 kts 110°
2026-04-30 04:35 -41.41917 172.43252 10635 ft 201 kts 110°
2026-04-30 04:35 -41.42284 172.45060 10464 ft 202 kts 110°
2026-04-30 04:36 -41.42652 172.46871 10290 ft 203 kts 110°
2026-04-30 04:36 -41.43020 172.48679 10134 ft 203 kts 110°
2026-04-30 04:36 -41.43380 172.50446 10035 ft 200 kts 110°
2026-04-30 04:36 -41.43738 172.52233 10015 ft 194 kts 110°
2026-04-30 04:37 -41.43966 172.53388 10012 ft 191 kts 110°
2026-04-30 04:37 -41.44429 172.55644 10014 ft 187 kts 111°
2026-04-30 04:37 -41.44666 172.56785 10015 ft 186 kts 111°
2026-04-30 04:37 -41.45125 172.58997 10016 ft 185 kts 111°
2026-04-30 04:38 -41.45352 172.60093 10017 ft 185 kts 111°
2026-04-30 04:38 -41.45695 172.61752 10017 ft 185 kts 111°
2026-04-30 04:38 -41.45988 172.63394 10010 ft 188 kts 102°
2026-04-30 04:38 -41.45797 172.65159 10022 ft 194 kts 78°
2026-04-30 04:39 -41.45285 172.66830 10020 ft 197 kts 69°
2026-04-30 04:39 -41.44488 172.69009 10017 ft 197 kts 69°
2026-04-30 04:39 -41.44101 172.70118 10017 ft 197 kts 70°
2026-04-30 04:39 -41.43555 172.71787 10012 ft 197 kts 71°
2026-04-30 04:40 -41.43014 172.73452 10008 ft 196 kts 71°
2026-04-30 04:40 -41.42452 172.75099 10015 ft 193 kts 71°
2026-04-30 04:40 -41.41910 172.76728 10018 ft 192 kts 71°
2026-04-30 04:40 -41.41373 172.78372 10019 ft 191 kts 71°
2026-04-30 04:41 -41.40836 172.79985 10020 ft 191 kts 71°
2026-04-30 04:41 -41.40302 172.81599 10018 ft 191 kts 72°
2026-04-30 04:41 -41.39773 172.83200 10019 ft 191 kts 71°
2026-04-30 04:41 -41.39230 172.84829 10020 ft 191 kts 71°
2026-04-30 04:42 -41.38697 172.86440 10019 ft 191 kts 71°
2026-04-30 04:42 -41.38162 172.88055 10020 ft 190 kts 72°
2026-04-30 04:42 -41.38014 172.89736 10009 ft 179 kts 107°
2026-04-30 04:42 -41.38644 172.91022 9876 ft 159 kts 146°
2026-04-30 04:43 -41.39608 172.91618 9639 ft 145 kts 161°
2026-04-30 04:43 -41.40543 172.92064 9379 ft 139 kts 160°
2026-04-30 04:43 -41.41412 172.92619 9124 ft 136 kts 153°
2026-04-30 04:43 -41.42214 172.93248 8873 ft 133 kts 151°
2026-04-30 04:44 -41.43003 172.93889 8621 ft 131 kts 151°
2026-04-30 04:44 -41.43778 172.94514 8368 ft 130 kts 150°
2026-04-30 04:44 -41.44276 172.95505 8085 ft 139 kts 104°
2026-04-30 04:44 -41.43995 172.96740 7865 ft 144 kts 63°
2026-04-30 04:45 -41.43459 172.97834 7630 ft 140 kts 65°
2026-04-30 04:45 -41.42964 172.98953 7377 ft 139 kts 66°
2026-04-30 04:45 -41.42475 173.00068 7124 ft 137 kts 66°
2026-04-30 04:45 -41.42001 173.01145 6878 ft 137 kts 65°
2026-04-30 04:46 -41.41519 173.02207 6659 ft 127 kts 65°
2026-04-30 04:46 -41.41065 173.03205 6388 ft 123 kts 65°
2026-04-30 04:46 -41.40620 173.04176 6089 ft 123 kts 65°
2026-04-30 04:46 -41.40177 173.05140 5792 ft 123 kts 65°
2026-04-30 04:47 -41.39738 173.06101 5494 ft 122 kts 65°
2026-04-30 04:47 -41.39293 173.07063 5194 ft 122 kts 64°
2026-04-30 04:47 -41.38850 173.08014 4896 ft 121 kts 63°
2026-04-30 04:47 -41.38405 173.08971 4594 ft 120 kts 63°
2026-04-30 04:48 -41.37967 173.09913 4294 ft 119 kts 63°
2026-04-30 04:48 -41.37532 173.10848 3993 ft 118 kts 62°
2026-04-30 04:48 -41.37102 173.11771 3693 ft 117 kts 61°
2026-04-30 04:48 -41.36607 173.12594 3399 ft 116 kts 49°
2026-04-30 04:49 -41.36058 173.13371 3100 ft 115 kts 49°
2026-04-30 04:49 -41.35513 173.14151 2798 ft 113 kts 49°
2026-04-30 04:49 -41.34984 173.14913 2499 ft 111 kts 48°
2026-04-30 04:49 -41.34461 173.15661 2199 ft 109 kts 47°
2026-04-30 04:50 -41.33958 173.16381 1902 ft 106 kts 50°
2026-04-30 04:50 -41.33453 173.17104 1595 ft 104 kts 49°
2026-04-30 04:50 -41.32966 173.17805 1293 ft 103 kts 47°
2026-04-30 04:50 -41.32478 173.18510 991 ft 104 kts 47°
2026-04-30 04:51 -41.31991 173.19210 705 ft 103 kts 46°
2026-04-30 04:51 -41.31520 173.19869 530 ft 95 kts 45°
2026-04-30 04:51 -41.31104 173.20511 408 ft 88 kts 56°
2026-04-30 04:51 -41.30769 173.21145 278 ft 84 kts 49°
2026-04-30 04:52 -41.30342 173.21700 129 ft 83 kts 40°
2026-04-30 04:52 -41.29923 173.22159 24 ft 70 kts 39°
2026-04-30 04:52 -41.29666 173.22439 15 ft 17 kts 39°
2026-04-30 04:52 -41.29655 173.22450 15 ft 0 kts 39°